Tropical Cyclones
[Index]
Main Index Home Page Stock Weather Photos Extreme Storms Discussion Storm News and Storm Chasing Reports Tropical Cyclones / Hurricanes / Typhoons Weather Data and Links Wild Fires / Bushfires Weather Observation Techniques Weather Picture Catalogue Tornado Pictures and Reports Stock Video Footage and DVDs for sale
Season 1996-1997 Tropical Cyclone GRETELLE Track Map
Season 1996-1997 Summaries: [BoM-AU] [JTWC-AU] [JTWC-SIO] [JTWC-SPAC] [JTWC-SH]
<<- Previous TC | JTWC 1996-1997 Season | Next TC ->>

click for intensity scale information  Lat/long Grid: Show Hide

 Date Labels: Show Hide

Joint Typhoon Warning Centre Cyclone Data

Name: GRETELLE

18 Jan 1997 00:00 UTC to 31 Jan 1997 18:00 UTC

    date/time    lat    long     hPa   cat  kts
1997-01-18 00   11.1    58.8                  10          
1997-01-18 06   11.6    58.1                  15          
1997-01-18 12   12.4    57.9                  15          
1997-01-18 18   13.2    58.0                  15          
1997-01-19 00   13.9    58.1                  20          
1997-01-19 06   14.7    58.3                  20          
1997-01-19 12   15.4    58.5                  20          
1997-01-19 18   15.8    58.5                  25          
1997-01-20 00   16.1    58.2                  30          
1997-01-20 06   16.3    57.7                  35          
1997-01-20 12   16.6    57.1            1     40          
1997-01-20 18   16.9    56.6            1     45          
1997-01-21 00   17.1    56.2            1     45          
1997-01-21 06   17.3    55.9            1     50          
1997-01-21 12   17.6    55.7            2     55          
1997-01-21 18   17.8    55.3            2     60          
1997-01-22 00   17.8    54.9            2     65          
1997-01-22 06   18.0    54.5            2     70          
1997-01-22 12   18.3    54.1            3     75          
1997-01-22 18   18.7    53.7            3     80          
1997-01-23 00   19.4    53.2            3     85          
1997-01-23 06   20.0    52.3            3     85          
1997-01-23 12   20.7    51.6            3     90          
1997-01-23 18   21.4    50.7            4    100          
1997-01-24 00   22.1    49.6            4    110          
1997-01-24 06   22.6    48.5            4    115          
1997-01-24 12   22.8    47.5            4    115          
1997-01-24 18   23.0    46.5            4    100          
1997-01-25 00   23.3    45.7            3     85          
1997-01-25 06   23.6    44.8            2     65          
1997-01-25 12   23.9    43.8            1     45          
1997-01-25 18   24.1    42.7            1     45          
1997-01-26 00   24.3    41.6            1     45          
1997-01-26 06   24.7    40.8            1     45          
1997-01-26 12   25.0    40.1            1     45          
1997-01-26 18   25.4    39.4            1     45          
1997-01-27 00   25.7    38.8            1     45          
1997-01-27 06   26.0    38.3            1     45          
1997-01-27 12   26.3    37.6            1     45          
1997-01-27 18   26.2    36.9            1     45          
1997-01-28 00   26.2    36.6            1     45          
1997-01-28 06   26.2    36.3            1     45          
1997-01-28 12   26.3    36.1            1     50          
1997-01-28 18   26.4    36.3            2     55          
1997-01-29 00   26.5    36.5            2     65          
1997-01-29 06   26.5    36.8            2     60          
1997-01-29 12   26.6    37.1            2     55          
1997-01-29 18   27.0    37.4            1     50          
1997-01-30 00   27.5    37.5            1     45          
1997-01-30 06   28.1    37.7            1     45          
1997-01-30 12   28.6    38.0            1     40          
1997-01-30 18   29.1    38.6            1     40          
1997-01-31 00   29.9    39.0                  35          
1997-01-31 06   31.2    39.3                  35          
1997-01-31 12   33.0    39.7                  30          
1997-01-31 18   35.1    40.0                  30          
Winds are 1-min average.

Tropical cyclone tracks developed by Michael Bath using data from the Joint Typhoon Warning Centre Best Tracks and Google Maps.


[Australian Severe Weather index] [Copyright Notice] [Email Contacts] [Search This Site] [Privacy Policy]
Document: tropical_cyclone_gretelle.htm Updated: 18 September 2016